createdAt,value
2018-06-05T00:01:36.724Z,8.13
2018-06-05T00:04:06.192Z,9.70
2018-06-05T00:06:35.336Z,9.83
2018-06-05T00:09:04.599Z,10.87
2018-06-05T00:11:33.752Z,7.90
2018-06-05T00:14:03.095Z,10.40
2018-06-05T00:16:32.303Z,11.07
2018-06-05T00:19:01.677Z,7.03
2018-06-05T00:21:31.133Z,9.13
2018-06-05T00:24:00.525Z,7.53
2018-06-05T00:26:29.765Z,9.00
2018-06-05T00:28:59.027Z,9.83
2018-06-05T00:31:28.303Z,13.73
2018-06-05T00:33:57.568Z,8.53
2018-06-05T00:36:26.792Z,9.50
2018-06-05T00:38:56.133Z,8.93
2018-06-05T00:41:25.397Z,13.03
2018-06-05T00:43:54.775Z,8.73
2018-06-05T00:46:23.958Z,9.13
2018-06-05T00:48:53.336Z,7.67
2018-06-05T00:51:33.371Z,8.13
2018-06-05T00:54:02.650Z,9.80
2018-06-05T00:56:31.927Z,8.73
2018-06-05T00:59:01.199Z,8.43
2018-06-05T01:01:30.408Z,6.73
2018-06-05T01:03:59.595Z,7.73
2018-06-05T01:06:28.876Z,6.87
2018-06-05T01:08:58.152Z,7.60
2018-06-05T01:11:27.419Z,7.00
2018-06-05T01:13:56.592Z,10.73
2018-06-05T01:16:25.869Z,6.93
2018-06-05T01:18:55.104Z,9.83
2018-06-05T01:21:24.512Z,9.87
2018-06-05T01:23:53.862Z,9.93
2018-06-05T01:26:23.157Z,8.73
2018-06-05T01:28:52.389Z,8.53
2018-06-05T01:31:21.616Z,7.87
2018-06-05T01:33:50.928Z,8.07
2018-06-05T01:36:20.269Z,8.30
2018-06-05T01:38:49.527Z,10.33
2018-06-05T01:41:18.979Z,10.43
2018-06-05T01:43:48.096Z,6.87
2018-06-05T01:46:17.181Z,8.50
2018-06-05T01:48:46.531Z,7.57
2018-06-05T01:51:15.799Z,10.33
2018-06-05T01:53:45.037Z,6.60
2018-06-05T01:56:14.207Z,8.27
2018-06-05T01:58:43.478Z,6.40
2018-06-05T02:01:12.746Z,7.37
2018-06-05T02:03:42.080Z,7.60
2018-06-05T02:06:11.451Z,7.23
2018-06-05T02:08:41.008Z,8.37
2018-06-05T02:11:10.246Z,5.97
2018-06-05T02:13:39.463Z,7.77
2018-06-05T02:16:08.748Z,7.83
2018-06-05T02:18:38.012Z,9.93
2018-06-05T02:21:07.357Z,8.10
2018-06-05T02:23:36.613Z,7.27
2018-06-05T02:26:05.836Z,8.00
2018-06-05T02:28:35.172Z,8.40
2018-06-05T02:31:04.427Z,7.53
2018-06-05T02:33:33.715Z,8.17
2018-06-05T02:36:03.077Z,8.70
2018-06-05T02:38:32.504Z,7.70
2018-06-05T02:41:01.837Z,8.50
2018-06-05T02:43:31.047Z,8.03
2018-06-05T02:46:00.281Z,8.30
2018-06-05T02:48:29.503Z,11.40
2018-06-05T02:50:58.637Z,9.97
2018-06-05T02:53:27.896Z,11.57
2018-06-05T02:55:57.179Z,8.20
2018-06-05T02:58:26.448Z,9.00
2018-06-05T03:00:55.718Z,9.73
2018-06-05T03:03:24.992Z,9.80
2018-06-05T03:05:54.313Z,8.67
2018-06-05T03:08:23.687Z,9.47
2018-06-05T03:10:53.053Z,9.13
2018-06-05T03:13:22.557Z,10.00
2018-06-05T03:15:51.873Z,6.97
2018-06-05T03:18:21.188Z,8.43
2018-06-05T03:20:50.464Z,8.93
2018-06-05T03:23:19.724Z,9.17
2018-06-05T03:25:49.021Z,12.70
2018-06-05T03:28:18.328Z,11.73
2018-06-05T03:30:47.811Z,8.50
2018-06-05T03:33:17.086Z,12.70
2018-06-05T03:35:46.416Z,11.90
2018-06-05T03:38:15.740Z,10.17
2018-06-05T03:40:45.013Z,8.87
2018-06-05T03:43:14.088Z,12.87
2018-06-05T03:45:43.448Z,13.17
2018-06-05T03:48:12.778Z,9.20
2018-06-05T03:50:42.101Z,8.93
2018-06-05T03:53:11.365Z,11.07
2018-06-05T03:55:40.461Z,11.23
2018-06-05T03:58:09.724Z,9.13
2018-06-05T04:00:39.053Z,9.97
2018-06-05T04:03:08.365Z,10.10
2018-06-05T04:05:37.677Z,15.57
2018-06-05T04:08:06.792Z,11.17
2018-06-05T04:10:35.984Z,11.07
2018-06-05T04:13:05.272Z,11.87
2018-06-05T04:15:34.528Z,9.17
2018-06-05T04:18:03.765Z,10.47
2018-06-05T04:20:32.980Z,16.70
2018-06-05T04:23:02.326Z,8.10
2018-06-05T04:25:31.524Z,9.33
2018-06-05T04:28:00.750Z,7.43
2018-06-05T04:30:30.089Z,10.87
2018-06-05T04:32:59.360Z,8.50
2018-06-05T04:35:28.623Z,8.53
2018-06-05T04:37:57.990Z,10.50
2018-06-05T04:40:27.380Z,8.63
2018-06-05T04:42:56.745Z,12.83
2018-06-05T04:45:25.916Z,11.40
2018-06-05T04:47:55.147Z,10.73
2018-06-05T04:50:24.477Z,13.27
2018-06-05T04:52:53.812Z,13.33
2018-06-05T04:55:23.000Z,8.50
2018-06-05T04:57:52.336Z,9.60
2018-06-05T05:00:21.356Z,8.97
2018-06-05T05:02:50.740Z,10.93
2018-06-05T05:05:20.132Z,8.40
2018-06-05T05:07:49.249Z,11.67
2018-06-05T05:10:18.577Z,11.93
2018-06-05T05:12:47.867Z,10.17
2018-06-05T05:15:17.381Z,14.27
2018-06-05T05:17:46.692Z,10.33
2018-06-05T05:20:16.050Z,10.30
2018-06-05T05:22:45.436Z,12.13
2018-06-05T05:25:14.700Z,12.90
2018-06-05T05:27:44.049Z,10.67
2018-06-05T05:30:13.244Z,11.97
2018-06-05T05:32:42.622Z,10.33
2018-06-05T05:35:11.656Z,13.83
2018-06-05T05:37:41.024Z,10.60
2018-06-05T05:40:10.352Z,14.00
2018-06-05T05:42:39.667Z,14.20
2018-06-05T05:45:09.000Z,13.03
2018-06-05T05:47:38.293Z,11.80
2018-06-05T05:50:08.664Z,13.00
2018-06-05T05:52:37.932Z,14.53
2018-06-05T05:55:07.200Z,14.83
2018-06-05T05:57:36.424Z,10.47
2018-06-05T06:00:05.926Z,13.87
2018-06-05T06:02:35.320Z,21.07
2018-06-05T06:05:04.841Z,15.90
2018-06-05T06:07:34.332Z,14.60
2018-06-05T06:10:03.696Z,16.07
2018-06-05T06:12:33.051Z,14.33
2018-06-05T06:15:02.388Z,17.67
2018-06-05T06:17:31.769Z,14.63
2018-06-05T06:20:01.198Z,15.23
2018-06-05T06:22:30.527Z,42.83
2018-06-05T06:24:59.901Z,15.77
2018-06-05T06:27:29.109Z,13.47
2018-06-05T06:29:58.381Z,14.43
2018-06-05T06:32:27.760Z,22.37
2018-06-05T06:34:57.067Z,19.27
2018-06-05T06:37:26.313Z,14.13
2018-06-05T06:39:55.527Z,20.37
2018-06-05T06:42:24.802Z,15.03
2018-06-05T06:44:54.067Z,15.33
2018-06-05T06:47:23.440Z,15.13
2018-06-05T06:49:52.692Z,16.20
2018-06-05T06:52:22.092Z,15.13
2018-06-05T06:54:51.429Z,14.00
2018-06-05T06:57:20.508Z,8.23
2018-06-05T06:59:49.920Z,11.63
2018-06-05T07:02:19.135Z,15.73
2018-06-05T07:04:48.363Z,12.67
2018-06-05T07:07:17.599Z,9.53
2018-06-05T07:09:46.904Z,8.27
2018-06-05T07:12:16.943Z,6.50
2018-06-05T07:14:46.309Z,5.90
2018-06-05T07:17:15.792Z,11.97
2018-06-05T07:19:45.108Z,8.80
2018-06-05T07:22:14.401Z,7.00
2018-06-05T07:24:43.820Z,7.33
2018-06-05T07:27:12.995Z,6.57
2018-06-05T07:29:42.128Z,15.60
2018-06-05T07:32:11.327Z,8.27
2018-06-05T07:34:40.612Z,12.60
2018-06-05T07:37:09.868Z,9.10
2018-06-05T07:39:39.147Z,10.87
2018-06-05T07:42:08.424Z,9.83
2018-06-05T07:44:37.645Z,8.47
2018-06-05T07:47:07.085Z,8.07
2018-06-05T07:49:36.293Z,6.83
2018-06-05T07:52:05.724Z,6.60
2018-06-05T07:54:35.095Z,7.20
2018-06-05T07:57:04.425Z,13.57
2018-06-05T07:59:33.748Z,21.57
2018-06-05T08:02:03.060Z,9.27
2018-06-05T08:04:32.384Z,8.20
2018-06-05T08:07:01.663Z,6.17
2018-06-05T08:09:30.880Z,9.03
2018-06-05T08:12:00.161Z,10.80
2018-06-05T08:14:29.490Z,7.27
2018-06-05T08:16:58.656Z,6.53
2018-06-05T08:19:27.933Z,9.77
2018-06-05T08:21:57.251Z,10.63
2018-06-05T08:24:26.423Z,8.40
2018-06-05T08:26:55.745Z,6.27
2018-06-05T08:29:25.094Z,11.27
2018-06-05T08:31:54.296Z,7.60
2018-06-05T08:34:23.624Z,5.77
2018-06-05T08:36:52.996Z,6.40
2018-06-05T08:39:22.369Z,7.90
2018-06-05T08:41:51.687Z,7.63
2018-06-05T08:44:21.125Z,8.30
2018-06-05T08:46:50.337Z,6.23
2018-06-05T08:49:19.668Z,5.27
2018-06-05T08:51:48.996Z,5.50
2018-06-05T08:54:18.250Z,5.10
2018-06-05T08:56:47.515Z,10.50
2018-06-05T08:59:16.812Z,5.33
2018-06-05T09:01:46.131Z,6.07
2018-06-05T09:04:15.582Z,5.10
2018-06-05T09:06:44.884Z,6.00
2018-06-05T09:09:14.373Z,6.50
2018-06-05T09:11:43.672Z,5.50
2018-06-05T09:14:13.067Z,5.63
2018-06-05T09:16:42.442Z,5.90
2018-06-05T09:19:11.868Z,6.13
2018-06-05T09:21:41.232Z,15.17
2018-06-05T09:24:10.484Z,6.27
2018-06-05T09:26:39.792Z,6.00
2018-06-05T09:29:09.205Z,5.80
2018-06-05T09:31:38.690Z,7.83
2018-06-05T09:34:08.008Z,6.23
2018-06-05T09:36:37.489Z,8.13
2018-06-05T09:39:09.025Z,6.47
2018-06-05T09:41:38.297Z,6.77
2018-06-05T09:44:07.556Z,5.53
2018-06-05T09:46:36.836Z,9.47
2018-06-05T09:49:06.156Z,6.87
2018-06-05T09:51:35.472Z,5.77
2018-06-05T09:54:04.762Z,9.13
2018-06-05T09:56:34.115Z,6.90
2018-06-05T09:59:03.552Z,8.93
2018-06-05T10:01:32.776Z,11.93
2018-06-05T10:04:02.208Z,7.23
2018-06-05T10:06:31.581Z,6.03
2018-06-05T10:09:00.895Z,7.87
2018-06-05T10:11:30.308Z,5.67
2018-06-05T10:13:59.640Z,8.73
2018-06-05T10:16:29.124Z,13.60
2018-06-05T10:18:58.492Z,5.90
2018-06-05T10:21:27.926Z,7.40
2018-06-05T10:23:57.295Z,19.03
2018-06-05T10:26:26.665Z,7.70
2018-06-05T10:28:56.040Z,6.00
2018-06-05T10:31:25.410Z,14.30
2018-06-05T10:33:54.649Z,7.57
2018-06-05T10:36:23.816Z,7.37
2018-06-05T10:38:53.137Z,10.27
2018-06-05T10:41:22.516Z,8.30
2018-06-05T10:43:51.876Z,5.77
2018-06-05T10:46:21.111Z,7.37
2018-06-05T10:48:50.484Z,7.40
2018-06-05T10:51:19.908Z,8.93
2018-06-05T10:53:49.369Z,11.47
2018-06-05T10:56:18.692Z,18.20
2018-06-05T10:58:48.093Z,14.33
2018-06-05T11:01:17.393Z,9.53
2018-06-05T11:03:46.720Z,8.13
2018-06-05T11:06:15.900Z,5.67
2018-06-05T11:08:45.119Z,6.27
2018-06-05T11:11:14.449Z,7.17
2018-06-05T11:13:43.660Z,8.40
2018-06-05T11:16:12.997Z,7.73
2018-06-05T11:18:42.209Z,9.63
2018-06-05T11:21:11.440Z,8.23
2018-06-05T11:23:40.733Z,10.67
2018-06-05T11:26:10.057Z,8.73
2018-06-05T11:28:39.415Z,9.03
2018-06-05T11:31:08.794Z,9.30
2018-06-05T11:33:38.976Z,27.20
2018-06-05T11:36:08.283Z,8.70
2018-06-05T11:38:37.533Z,11.03
2018-06-05T11:41:06.733Z,8.40
2018-06-05T11:43:36.005Z,15.17
2018-06-05T11:46:05.417Z,7.97
2018-06-05T11:48:34.659Z,12.30
2018-06-05T11:51:03.940Z,11.00
2018-06-05T11:53:33.148Z,12.03
2018-06-05T11:56:02.434Z,8.00
2018-06-05T11:58:31.707Z,15.40
2018-06-05T12:01:00.987Z,6.60
2018-06-05T12:03:30.287Z,11.07
2018-06-05T12:05:59.634Z,8.47
2018-06-05T12:08:29.056Z,8.73
2018-06-05T12:10:58.533Z,6.80
2018-06-05T12:13:27.893Z,6.57
2018-06-05T12:15:57.261Z,7.73
2018-06-05T12:18:26.652Z,8.43
2018-06-05T12:20:56.081Z,7.13
2018-06-05T12:23:25.493Z,8.30
2018-06-05T12:25:54.872Z,5.60
2018-06-05T12:28:24.244Z,8.00
2018-06-05T12:30:53.720Z,6.37
2018-06-05T12:33:23.084Z,11.27
2018-06-05T12:35:52.340Z,8.23
2018-06-05T12:38:21.401Z,26.37
2018-06-05T12:40:50.760Z,7.23
2018-06-05T12:43:20.250Z,10.10
2018-06-05T12:45:50.421Z,5.80
2018-06-05T12:48:19.789Z,6.70
2018-06-05T12:50:49.171Z,8.87
2018-06-05T12:53:18.434Z,6.17
2018-06-05T12:55:48.048Z,6.20
2018-06-05T12:58:17.625Z,8.63
2018-06-05T13:00:46.888Z,5.87
2018-06-05T13:03:16.163Z,10.20
2018-06-05T13:05:45.383Z,5.30
2018-06-05T13:08:14.692Z,8.63
2018-06-05T13:10:43.896Z,12.00
2018-06-05T13:13:13.184Z,10.00
2018-06-05T13:15:42.448Z,12.80
2018-06-05T13:18:11.733Z,10.77
2018-06-05T13:20:41.045Z,11.23
2018-06-05T13:23:10.471Z,10.90
2018-06-05T13:25:39.839Z,7.23
2018-06-05T13:28:09.164Z,15.53
2018-06-05T13:30:38.461Z,7.63
2018-06-05T13:33:07.808Z,6.37
2018-06-05T13:35:37.104Z,8.57
2018-06-05T13:38:06.459Z,8.30
2018-06-05T13:40:35.800Z,5.53
2018-06-05T13:43:05.008Z,5.70
2018-06-05T13:45:34.289Z,6.77
2018-06-05T13:48:03.714Z,6.93
2018-06-05T13:50:32.983Z,7.87
2018-06-05T13:53:02.325Z,7.57
2018-06-05T13:55:31.676Z,7.93
2018-06-05T13:58:00.856Z,7.90
2018-06-05T14:00:29.936Z,8.23
2018-06-05T14:02:59.348Z,6.30
2018-06-05T14:05:28.876Z,15.40
2018-06-05T14:07:58.200Z,34.20
2018-06-05T14:10:27.483Z,12.20
2018-06-05T14:12:56.700Z,12.07
2018-06-05T14:15:26.088Z,9.60
2018-06-05T14:17:55.396Z,8.30
2018-06-05T14:20:24.772Z,18.20
2018-06-05T14:22:54.087Z,9.70
2018-06-05T14:25:23.580Z,14.93
2018-06-05T14:27:52.840Z,11.00
2018-06-05T14:30:22.182Z,13.97
2018-06-05T14:32:51.462Z,9.07
2018-06-05T14:35:20.691Z,7.90
2018-06-05T14:37:50.005Z,8.23
2018-06-05T14:40:19.320Z,7.90
2018-06-05T14:42:48.658Z,8.10
2018-06-05T14:45:18.132Z,10.80
2018-06-05T14:47:47.440Z,6.27
2018-06-05T14:50:16.656Z,7.93
2018-06-05T14:52:45.754Z,8.60
2018-06-05T14:55:15.008Z,6.67
2018-06-05T14:57:44.276Z,7.03
2018-06-05T15:00:13.558Z,8.70
2018-06-05T15:02:42.780Z,6.53
2018-06-05T15:05:11.927Z,6.07
2018-06-05T15:07:41.273Z,7.27
2018-06-05T15:10:10.722Z,8.83
2018-06-05T15:12:40.124Z,6.60
2018-06-05T15:15:09.602Z,7.57
2018-06-05T15:17:38.923Z,6.80
2018-06-05T15:20:08.239Z,10.00
2018-06-05T15:22:37.636Z,7.97
2018-06-05T15:25:06.905Z,8.93
2018-06-05T15:27:36.325Z,8.17
2018-06-05T15:30:06.192Z,8.83
2018-06-05T15:32:35.467Z,8.40
2018-06-05T15:35:04.865Z,8.27
2018-06-05T15:37:34.040Z,8.50
2018-06-05T15:40:03.311Z,7.97
2018-06-05T15:42:32.613Z,8.30
2018-06-05T15:45:01.944Z,8.53
2018-06-05T15:47:31.309Z,8.57
2018-06-05T15:50:00.679Z,8.67
2018-06-05T15:52:30.000Z,9.93
2018-06-05T15:54:59.346Z,7.63
2018-06-05T15:57:28.683Z,12.40
2018-06-05T15:59:57.991Z,7.53
2018-06-05T16:02:27.325Z,10.73
2018-06-05T16:04:56.584Z,9.07
2018-06-05T16:07:26.160Z,8.33
2018-06-05T16:09:55.569Z,9.33
2018-06-05T16:12:24.905Z,8.27
2018-06-05T16:14:54.232Z,7.77
2018-06-05T16:17:23.548Z,8.47
2018-06-05T16:19:52.828Z,7.87
2018-06-05T16:22:22.097Z,8.83
2018-06-05T16:24:51.327Z,6.93
2018-06-05T16:27:20.509Z,11.87
2018-06-05T16:29:49.972Z,9.83
2018-06-05T16:32:19.452Z,11.00
2018-06-05T16:34:48.837Z,11.03
2018-06-05T16:37:18.100Z,11.30
2018-06-05T16:39:47.408Z,9.67
2018-06-05T16:42:16.749Z,12.50
2018-06-05T16:44:46.009Z,11.93
2018-06-05T16:47:15.388Z,9.47
2018-06-05T16:49:44.600Z,9.63
2018-06-05T16:52:13.832Z,8.27
2018-06-05T16:54:43.059Z,9.73
2018-06-05T16:57:12.329Z,10.50
2018-06-05T16:59:41.657Z,8.97
2018-06-05T17:02:10.977Z,10.90
2018-06-05T17:04:40.375Z,10.23
2018-06-05T17:07:09.574Z,8.53
2018-06-05T17:09:38.897Z,8.30
2018-06-05T17:12:08.048Z,12.43
2018-06-05T17:14:37.150Z,16.80
2018-06-05T17:17:06.485Z,24.63
2018-06-05T17:19:35.758Z,23.33
2018-06-05T17:22:05.020Z,13.13
2018-06-05T17:24:34.245Z,13.63
2018-06-05T17:27:03.566Z,13.23
2018-06-05T17:29:32.788Z,12.47
2018-06-05T17:32:01.885Z,12.63
2018-06-05T17:34:31.212Z,10.87
2018-06-05T17:37:00.459Z,12.07
2018-06-05T17:39:29.688Z,9.83
2018-06-05T17:41:58.907Z,21.10
2018-06-05T17:44:28.302Z,10.20
2018-06-05T17:46:57.555Z,10.00
2018-06-05T17:49:26.841Z,14.80
2018-06-05T17:51:56.101Z,14.33
2018-06-05T17:54:25.328Z,12.80
2018-06-05T17:56:54.617Z,12.77
2018-06-05T17:59:23.796Z,11.80
2018-06-05T18:01:53.024Z,13.57
2018-06-05T18:04:22.156Z,14.50
2018-06-05T18:06:51.160Z,13.63
2018-06-05T18:09:20.378Z,16.83
2018-06-05T18:11:49.592Z,15.10
2018-06-05T18:14:19.491Z,13.27
2018-06-05T18:16:48.902Z,13.23
2018-06-05T18:19:20.540Z,13.73
2018-06-05T18:21:50.086Z,16.03
2018-06-05T18:24:19.306Z,14.13
2018-06-05T18:26:49.820Z,14.47
2018-06-05T18:29:19.011Z,14.63
2018-06-05T18:31:48.269Z,14.00
2018-06-05T18:34:18.173Z,13.20
2018-06-05T18:36:48.279Z,15.90
2018-06-05T18:39:17.477Z,14.67
2018-06-05T18:41:46.534Z,14.57
2018-06-05T18:44:15.792Z,15.03
2018-06-05T18:46:45.144Z,15.73
2018-06-05T18:49:14.381Z,16.87
2018-06-05T18:51:43.805Z,15.73
2018-06-05T18:54:13.133Z,21.73
2018-06-05T18:56:42.441Z,15.50
2018-06-05T18:59:11.849Z,14.60
2018-06-05T19:01:41.092Z,16.67
2018-06-05T19:04:10.312Z,16.33
2018-06-05T19:06:39.688Z,17.47
2018-06-05T19:09:09.315Z,17.70
2018-06-05T19:11:38.697Z,19.00
2018-06-05T19:14:07.912Z,16.17
2018-06-05T19:16:37.207Z,17.93
2018-06-05T19:19:06.470Z,15.83
2018-06-05T19:21:35.801Z,15.20
2018-06-05T19:24:05.085Z,15.73
2018-06-05T19:26:34.305Z,15.83
2018-06-05T19:29:03.658Z,21.63
2018-06-05T19:31:32.844Z,15.03
2018-06-05T19:34:02.014Z,18.17
2018-06-05T19:36:31.208Z,17.90
2018-06-05T19:39:00.366Z,18.73
2018-06-05T19:41:29.503Z,20.57
2018-06-05T19:43:58.692Z,18.00
2018-06-05T19:46:27.855Z,18.47
2018-06-05T19:48:57.200Z,16.63
2018-06-05T19:51:26.472Z,17.50
2018-06-05T19:53:55.620Z,16.17
2018-06-05T19:56:24.868Z,19.60
2018-06-05T19:58:54.009Z,14.87
2018-06-05T20:01:23.355Z,17.57
2018-06-05T20:03:52.520Z,16.97
2018-06-05T20:06:21.670Z,15.77
2018-06-05T20:08:50.975Z,16.80
2018-06-05T20:11:20.151Z,17.40
2018-06-05T20:13:49.424Z,16.80
2018-06-05T20:16:18.757Z,17.27
2018-06-05T20:18:48.072Z,17.60
2018-06-05T20:21:17.410Z,18.33
2018-06-05T20:23:46.664Z,15.63
2018-06-05T20:26:15.951Z,21.60
2018-06-05T20:28:45.281Z,16.00
2018-06-05T20:31:14.535Z,16.77
2018-06-05T20:33:43.825Z,14.77
2018-06-05T20:36:13.060Z,15.70
2018-06-05T20:38:42.244Z,13.57
2018-06-05T20:41:11.404Z,14.97
2018-06-05T20:43:40.636Z,18.57
2018-06-05T20:46:09.921Z,14.97
2018-06-05T20:48:39.169Z,15.67
2018-06-05T20:51:08.320Z,15.03
2018-06-05T20:53:37.602Z,16.50
2018-06-05T20:56:07.002Z,19.60
2018-06-05T20:58:36.253Z,15.73
2018-06-05T21:01:05.589Z,15.27
2018-06-05T21:03:34.644Z,16.57
2018-06-05T21:06:03.981Z,15.90
2018-06-05T21:08:33.269Z,15.07
2018-06-05T21:11:02.528Z,15.57
2018-06-05T21:13:31.817Z,17.33
2018-06-05T21:16:01.068Z,17.33
2018-06-05T21:18:30.401Z,15.07
2018-06-05T21:20:59.589Z,14.83
2018-06-05T21:23:28.917Z,14.17
2018-06-05T21:25:58.301Z,14.33
2018-06-05T21:28:27.643Z,15.13
2018-06-05T21:30:57.016Z,13.43
2018-06-05T21:33:26.323Z,15.47
2018-06-05T21:35:55.588Z,13.53
2018-06-05T21:38:24.784Z,14.10
2018-06-05T21:40:54.104Z,16.50
2018-06-05T21:43:23.436Z,14.40
2018-06-05T21:45:52.660Z,15.40
2018-06-05T21:48:21.930Z,14.17
2018-06-05T21:50:51.234Z,15.93
2018-06-05T21:53:20.582Z,15.70
2018-06-05T21:55:49.730Z,14.27
2018-06-05T21:58:19.035Z,14.27
2018-06-05T22:00:48.316Z,13.43
2018-06-05T22:03:17.520Z,14.20
2018-06-05T22:05:46.759Z,14.60
2018-06-05T22:08:15.817Z,15.43
2018-06-05T22:10:45.138Z,13.37
2018-06-05T22:13:14.416Z,14.30
2018-06-05T22:15:43.732Z,15.50
2018-06-05T22:18:12.885Z,18.63
2018-06-05T22:20:42.000Z,17.03
2018-06-05T22:23:11.132Z,15.00
2018-06-05T22:25:40.252Z,18.93
2018-06-05T22:28:09.508Z,16.87
2018-06-05T22:30:38.680Z,15.73
2018-06-05T22:33:07.900Z,13.80
2018-06-05T22:35:37.132Z,14.30
2018-06-05T22:38:05.949Z,20.43
2018-06-05T22:40:35.190Z,17.47
2018-06-05T22:43:04.288Z,16.33
2018-06-05T22:45:33.547Z,17.40
2018-06-05T22:48:02.740Z,15.77
2018-06-05T22:50:32.060Z,15.43
2018-06-05T22:53:01.394Z,17.07
2018-06-05T22:55:30.536Z,21.67
2018-06-05T22:57:59.844Z,15.20
2018-06-05T23:00:32.725Z,16.50
2018-06-05T23:03:02.008Z,17.17
2018-06-05T23:05:31.215Z,19.20
2018-06-05T23:08:00.447Z,17.50
2018-06-05T23:10:29.600Z,16.67
2018-06-05T23:12:58.599Z,16.23
2018-06-05T23:15:27.864Z,19.37
2018-06-05T23:17:57.043Z,18.43
2018-06-05T23:20:26.365Z,17.67
2018-06-05T23:22:55.592Z,15.80
2018-06-05T23:25:24.907Z,15.17
2018-06-05T23:27:54.143Z,16.03
2018-06-05T23:30:23.357Z,16.87
2018-06-05T23:32:52.616Z,16.37
2018-06-05T23:35:21.800Z,17.83
2018-06-05T23:37:51.023Z,19.23
2018-06-05T23:40:20.260Z,17.00
2018-06-05T23:42:49.479Z,17.30
2018-06-05T23:45:18.708Z,17.60
2018-06-05T23:47:47.972Z,18.07
2018-06-05T23:50:17.299Z,16.97
2018-06-05T23:52:46.464Z,18.27
2018-06-05T23:55:15.752Z,17.27
2018-06-05T23:57:45.088Z,18.30
